TAP628 LPMA-LPPT
Flight info
| Callsign | TAP628 |
|---|---|
| Flight time | 1h 25m |
| Altitude | 38000 |
| Route | DEGUN DCT NARTA DCT ESUTI |
| Aircraft | A320/M-SDE3FGHIRWY/LB1 |
Departure
| Time | 2026-05-07 17:34 |
|---|---|
| Airport | Cristiano Ronaldo International Airport (LPMA) |
Arrival
| Time | 2026-05-07 18:59 |
|---|---|
| Airport | Lisbon Humberto Delgado Airport (LPPT) |
| Time | Latitude | Longitude | Altitude | Speed | Heading |
|---|---|---|---|---|---|
| 2026-05-07 17:30 | 32.69720 | -16.77350 | 177 ft | 12 kts | 66° |
| 2026-05-07 17:30 | 32.69766 | -16.77267 | 177 ft | 12 kts | 51° |
| 2026-05-07 17:30 | 32.69795 | -16.77228 | 177 ft | 1 kts | 46° |
| 2026-05-07 17:30 | 32.69812 | -16.77209 | 177 ft | 5 kts | 44° |
| 2026-05-07 17:31 | 32.69819 | -16.77200 | 177 ft | 0 kts | 44° |
| 2026-05-07 17:31 | 32.69839 | -16.77188 | 177 ft | 8 kts | 24° |
| 2026-05-07 17:31 | 32.69898 | -16.77178 | 177 ft | 11 kts | 2° |
| 2026-05-07 17:31 | 32.70034 | -16.77151 | 177 ft | 23 kts | 43° |
| 2026-05-07 17:32 | 32.70154 | -16.77020 | 177 ft | 23 kts | 43° |
| 2026-05-07 17:32 | 32.70268 | -16.76887 | 177 ft | 21 kts | 46° |
| 2026-05-07 17:32 | 32.70371 | -16.76766 | 177 ft | 21 kts | 43° |
| 2026-05-07 17:32 | 32.70476 | -16.76647 | 177 ft | 21 kts | 46° |
| 2026-05-07 17:33 | 32.70580 | -16.76527 | 177 ft | 18 kts | 37° |
| 2026-05-07 17:33 | 32.70676 | -16.76474 | 177 ft | 12 kts | 40° |
| 2026-05-07 17:33 | 32.70661 | -16.76437 | 177 ft | 6 kts | 192° |
| 2026-05-07 17:33 | 32.70618 | -16.76480 | 177 ft | 14 kts | 224° |
| 2026-05-07 17:34 | 32.70377 | -16.76758 | 177 ft | 95 kts | 224° |
| 2026-05-07 17:34 | 32.69726 | -16.77527 | 263 ft | 160 kts | 224° |
| 2026-05-07 17:34 | 32.68851 | -16.78504 | 974 ft | 182 kts | 219° |
| 2026-05-07 17:34 | 32.67652 | -16.79106 | 1987 ft | 195 kts | 193° |
| 2026-05-07 17:35 | 32.66256 | -16.78952 | 2904 ft | 215 kts | 165° |
| 2026-05-07 17:35 | 32.64996 | -16.77801 | 3693 ft | 252 kts | 126° |
| 2026-05-07 17:35 | 32.64415 | -16.75741 | 4547 ft | 279 kts | 97° |
| 2026-05-07 17:35 | 32.64382 | -16.73407 | 5784 ft | 287 kts | 86° |
| 2026-05-07 17:36 | 32.64535 | -16.71014 | 7027 ft | 294 kts | 84° |
| 2026-05-07 17:36 | 32.64710 | -16.68595 | 8225 ft | 301 kts | 85° |
| 2026-05-07 17:36 | 32.64841 | -16.66051 | 9460 ft | 309 kts | 86° |
| 2026-05-07 17:36 | 32.64911 | -16.63496 | 10411 ft | 323 kts | 88° |
| 2026-05-07 17:37 | 32.64940 | -16.60739 | 10915 ft | 348 kts | 87° |
| 2026-05-07 17:37 | 32.65226 | -16.57790 | 11444 ft | 367 kts | 76° |
| 2026-05-07 17:37 | 32.66011 | -16.54883 | 12294 ft | 373 kts | 63° |
| 2026-05-07 17:37 | 32.67288 | -16.52189 | 13207 ft | 375 kts | 50° |
| 2026-05-07 17:38 | 32.68995 | -16.49862 | 14093 ft | 375 kts | 39° |
| 2026-05-07 17:38 | 32.70895 | -16.47709 | 14925 ft | 380 kts | 38° |
| 2026-05-07 17:38 | 32.72818 | -16.45533 | 15757 ft | 385 kts | 38° |
| 2026-05-07 17:38 | 32.74766 | -16.43319 | 16584 ft | 390 kts | 38° |
| 2026-05-07 17:39 | 32.76738 | -16.41069 | 17391 ft | 396 kts | 38° |
| 2026-05-07 17:39 | 32.78736 | -16.38784 | 18193 ft | 401 kts | 38° |
| 2026-05-07 17:39 | 32.80756 | -16.36474 | 18879 ft | 406 kts | 38° |
| 2026-05-07 17:39 | 32.82810 | -16.34126 | 19556 ft | 412 kts | 39° |
| 2026-05-07 17:40 | 32.84897 | -16.31740 | 20107 ft | 421 kts | 39° |
| 2026-05-07 17:40 | 32.87017 | -16.29311 | 20714 ft | 427 kts | 39° |
| 2026-05-07 17:40 | 32.89168 | -16.26845 | 21397 ft | 432 kts | 39° |
| 2026-05-07 17:40 | 32.91339 | -16.24351 | 22037 ft | 436 kts | 39° |
| 2026-05-07 17:41 | 32.93535 | -16.21827 | 22663 ft | 441 kts | 39° |
| 2026-05-07 17:41 | 32.95755 | -16.19273 | 23273 ft | 446 kts | 39° |
| 2026-05-07 17:41 | 32.98000 | -16.16688 | 23805 ft | 451 kts | 39° |
| 2026-05-07 17:41 | 33.00269 | -16.14074 | 24310 ft | 456 kts | 39° |
| 2026-05-07 17:42 | 33.02562 | -16.11430 | 24781 ft | 461 kts | 40° |
| 2026-05-07 17:42 | 33.04878 | -16.08760 | 25257 ft | 465 kts | 40° |
| 2026-05-07 17:42 | 33.07185 | -16.06099 | 25716 ft | 470 kts | 40° |
| 2026-05-07 17:42 | 33.09547 | -16.03375 | 26171 ft | 475 kts | 40° |
| 2026-05-07 17:43 | 33.11931 | -16.00621 | 26631 ft | 479 kts | 40° |
| 2026-05-07 17:43 | 33.14365 | -15.97802 | 27000 ft | 487 kts | 41° |
| 2026-05-07 17:43 | 33.16790 | -15.94996 | 27293 ft | 495 kts | 41° |
| 2026-05-07 17:43 | 33.19268 | -15.92127 | 27768 ft | 499 kts | 42° |
| 2026-05-07 17:44 | 33.21775 | -15.89216 | 28267 ft | 502 kts | 42° |
| 2026-05-07 17:44 | 33.24290 | -15.86295 | 28714 ft | 506 kts | 42° |
| 2026-05-07 17:44 | 33.26826 | -15.83350 | 29124 ft | 511 kts | 42° |
| 2026-05-07 17:44 | 33.29383 | -15.80378 | 29520 ft | 515 kts | 42° |
| 2026-05-07 17:45 | 33.31960 | -15.77380 | 29904 ft | 519 kts | 42° |
| 2026-05-07 17:45 | 33.34556 | -15.74359 | 30253 ft | 523 kts | 42° |
| 2026-05-07 17:45 | 33.37163 | -15.71324 | 30603 ft | 525 kts | 42° |
| 2026-05-07 17:45 | 33.39783 | -15.68269 | 31043 ft | 525 kts | 42° |
| 2026-05-07 17:46 | 33.42396 | -15.65220 | 31576 ft | 523 kts | 42° |
| 2026-05-07 17:46 | 33.45018 | -15.62201 | 32038 ft | 523 kts | 42° |
| 2026-05-07 17:46 | 33.47673 | -15.59203 | 32438 ft | 525 kts | 41° |
| 2026-05-07 17:46 | 33.50348 | -15.56224 | 32946 ft | 525 kts | 42° |
| 2026-05-07 17:47 | 33.53026 | -15.53256 | 33470 ft | 524 kts | 41° |
| 2026-05-07 17:47 | 33.55699 | -15.50285 | 34009 ft | 522 kts | 41° |
| 2026-05-07 17:47 | 33.58322 | -15.47347 | 34452 ft | 521 kts | 42° |
| 2026-05-07 17:47 | 33.60959 | -15.44370 | 34906 ft | 520 kts | 42° |
| 2026-05-07 17:48 | 33.63583 | -15.41393 | 35337 ft | 519 kts | 42° |
| 2026-05-07 17:48 | 33.66203 | -15.38415 | 35753 ft | 518 kts | 41° |
| 2026-05-07 17:48 | 33.68820 | -15.35442 | 36161 ft | 518 kts | 41° |
| 2026-05-07 17:48 | 33.71437 | -15.32475 | 36557 ft | 517 kts | 41° |
| 2026-05-07 17:49 | 33.74049 | -15.29511 | 36948 ft | 516 kts | 41° |
| 2026-05-07 17:49 | 33.76657 | -15.26550 | 37333 ft | 516 kts | 41° |
| 2026-05-07 17:49 | 33.79263 | -15.23592 | 37774 ft | 514 kts | 41° |
| 2026-05-07 17:49 | 33.81866 | -15.20639 | 37961 ft | 514 kts | 41° |
| 2026-05-07 17:50 | 33.87054 | -15.14736 | 37988 ft | 513 kts | 41° |
| 2026-05-07 17:50 | 33.92230 | -15.08841 | 37985 ft | 512 kts | 41° |
| 2026-05-07 17:51 | 33.97404 | -15.02939 | 37986 ft | 512 kts | 41° |
| 2026-05-07 17:51 | 34.02568 | -14.97022 | 37983 ft | 512 kts | 41° |
| 2026-05-07 17:52 | 34.07695 | -14.91137 | 38000 ft | 513 kts | 42° |
| 2026-05-07 17:52 | 34.12865 | -14.85201 | 37995 ft | 513 kts | 42° |
| 2026-05-07 17:53 | 34.18034 | -14.79251 | 37992 ft | 513 kts | 42° |
| 2026-05-07 17:53 | 34.23204 | -14.73300 | 37991 ft | 514 kts | 42° |
| 2026-05-07 17:54 | 34.28378 | -14.67332 | 37990 ft | 514 kts | 42° |
| 2026-05-07 17:54 | 34.33541 | -14.61353 | 37992 ft | 514 kts | 42° |
| 2026-05-07 17:55 | 34.38695 | -14.55357 | 37988 ft | 514 kts | 43° |
| 2026-05-07 17:55 | 34.43854 | -14.49362 | 37986 ft | 514 kts | 43° |
| 2026-05-07 17:56 | 34.48157 | -14.44377 | 37985 ft | 515 kts | 43° |
| 2026-05-07 17:56 | 34.53358 | -14.38321 | 37983 ft | 515 kts | 43° |
| 2026-05-07 17:57 | 34.58485 | -14.32334 | 37984 ft | 515 kts | 43° |
| 2026-05-07 17:57 | 34.63645 | -14.26296 | 37985 ft | 515 kts | 43° |
| 2026-05-07 17:58 | 34.68806 | -14.20257 | 37954 ft | 514 kts | 43° |
| 2026-05-07 17:58 | 34.73951 | -14.14228 | 37952 ft | 514 kts | 44° |
| 2026-05-07 17:59 | 34.79098 | -14.08161 | 37961 ft | 515 kts | 44° |
| 2026-05-07 17:59 | 34.84248 | -14.02095 | 37969 ft | 515 kts | 43° |
| 2026-05-07 18:00 | 34.89412 | -13.96022 | 37973 ft | 516 kts | 44° |
| 2026-05-07 18:00 | 34.94566 | -13.89930 | 37978 ft | 516 kts | 44° |
| 2026-05-07 18:01 | 34.99709 | -13.83831 | 37966 ft | 515 kts | 44° |
| 2026-05-07 18:01 | 35.04858 | -13.77733 | 37975 ft | 515 kts | 44° |
| 2026-05-07 18:02 | 35.12527 | -13.68619 | 37978 ft | 515 kts | 44° |
| 2026-05-07 18:03 | 35.17647 | -13.62506 | 37986 ft | 515 kts | 45° |
| 2026-05-07 18:03 | 35.22784 | -13.56359 | 37983 ft | 515 kts | 44° |
| 2026-05-07 18:04 | 35.27912 | -13.50234 | 37976 ft | 515 kts | 44° |
| 2026-05-07 18:04 | 35.33042 | -13.44089 | 37951 ft | 516 kts | 45° |
| 2026-05-07 18:05 | 35.38179 | -13.37931 | 37952 ft | 517 kts | 45° |
| 2026-05-07 18:05 | 35.43326 | -13.31741 | 37956 ft | 518 kts | 45° |
| 2026-05-07 18:06 | 35.48436 | -13.25581 | 37966 ft | 518 kts | 45° |
| 2026-05-07 18:06 | 35.53576 | -13.19369 | 37990 ft | 519 kts | 45° |
| 2026-05-07 18:07 | 35.58709 | -13.13147 | 37953 ft | 518 kts | 45° |
| 2026-05-07 18:07 | 35.63835 | -13.06923 | 37961 ft | 518 kts | 45° |
| 2026-05-07 18:08 | 35.68963 | -13.00705 | 37973 ft | 518 kts | 45° |
| 2026-05-07 18:08 | 35.74093 | -12.94477 | 37975 ft | 518 kts | 45° |
| 2026-05-07 18:09 | 35.79181 | -12.88275 | 37970 ft | 518 kts | 45° |
| 2026-05-07 18:09 | 35.84300 | -12.82016 | 37991 ft | 518 kts | 46° |
| 2026-05-07 18:10 | 35.89410 | -12.75755 | 37947 ft | 517 kts | 46° |
| 2026-05-07 18:10 | 35.94502 | -12.69512 | 37968 ft | 517 kts | 46° |
| 2026-05-07 18:11 | 35.99595 | -12.63256 | 37973 ft | 516 kts | 46° |
| 2026-05-07 18:11 | 36.04683 | -12.56996 | 37978 ft | 516 kts | 46° |
| 2026-05-07 18:12 | 36.09839 | -12.50807 | 38003 ft | 516 kts | 44° |
| 2026-05-07 18:12 | 36.15144 | -12.44834 | 37971 ft | 515 kts | 43° |
| 2026-05-07 18:13 | 36.20469 | -12.38872 | 37918 ft | 515 kts | 43° |
| 2026-05-07 18:13 | 36.25740 | -12.32841 | 37940 ft | 516 kts | 44° |
| 2026-05-07 18:14 | 36.30950 | -12.26815 | 37954 ft | 516 kts | 44° |
| 2026-05-07 18:14 | 36.36201 | -12.20748 | 37961 ft | 516 kts | 44° |
| 2026-05-07 18:15 | 36.41464 | -12.14678 | 37986 ft | 516 kts | 44° |
| 2026-05-07 18:15 | 36.46716 | -12.08612 | 37982 ft | 516 kts | 44° |
| 2026-05-07 18:16 | 36.51966 | -12.02527 | 37950 ft | 515 kts | 44° |
| 2026-05-07 18:16 | 36.57203 | -11.96444 | 37964 ft | 515 kts | 44° |
| 2026-05-07 18:17 | 36.62401 | -11.90388 | 37973 ft | 515 kts | 44° |
| 2026-05-07 18:17 | 36.67641 | -11.84287 | 37981 ft | 515 kts | 44° |
| 2026-05-07 18:18 | 36.72872 | -11.78176 | 37978 ft | 515 kts | 44° |
| 2026-05-07 18:18 | 36.78107 | -11.72052 | 37975 ft | 515 kts | 44° |
| 2026-05-07 18:19 | 36.83325 | -11.65942 | 37977 ft | 515 kts | 44° |
| 2026-05-07 18:19 | 36.88504 | -11.59857 | 37977 ft | 514 kts | 44° |
| 2026-05-07 18:20 | 36.93702 | -11.53725 | 37993 ft | 514 kts | 44° |
| 2026-05-07 18:20 | 36.98907 | -11.47589 | 37981 ft | 514 kts | 44° |
| 2026-05-07 18:21 | 37.04117 | -11.41436 | 37976 ft | 514 kts | 44° |
| 2026-05-07 18:21 | 37.09318 | -11.35284 | 37973 ft | 514 kts | 44° |
| 2026-05-07 18:22 | 37.14493 | -11.29145 | 37941 ft | 514 kts | 44° |
| 2026-05-07 18:22 | 37.19683 | -11.22972 | 37983 ft | 514 kts | 44° |
| 2026-05-07 18:23 | 37.24873 | -11.16782 | 37984 ft | 514 kts | 44° |
| 2026-05-07 18:23 | 37.30054 | -11.10600 | 37980 ft | 513 kts | 44° |
| 2026-05-07 18:24 | 37.35218 | -11.04435 | 37977 ft | 513 kts | 44° |
| 2026-05-07 18:24 | 37.40383 | -10.98246 | 37975 ft | 513 kts | 44° |
| 2026-05-07 18:25 | 37.45521 | -10.92078 | 37878 ft | 513 kts | 44° |
| 2026-05-07 18:25 | 37.48099 | -10.88973 | 37606 ft | 512 kts | 44° |
| 2026-05-07 18:25 | 37.50666 | -10.85881 | 37333 ft | 512 kts | 44° |
| 2026-05-07 18:25 | 37.53245 | -10.82774 | 37005 ft | 512 kts | 44° |
| 2026-05-07 18:26 | 37.55838 | -10.79642 | 35893 ft | 520 kts | 44° |
| 2026-05-07 18:26 | 37.58457 | -10.76469 | 34801 ft | 526 kts | 45° |
| 2026-05-07 18:26 | 37.61109 | -10.73257 | 33590 ft | 534 kts | 45° |
| 2026-05-07 18:26 | 37.63794 | -10.70009 | 32613 ft | 533 kts | 44° |
| 2026-05-07 18:27 | 37.66468 | -10.66778 | 31779 ft | 529 kts | 45° |
| 2026-05-07 18:27 | 37.69111 | -10.63577 | 30941 ft | 524 kts | 45° |
| 2026-05-07 18:27 | 37.71726 | -10.60409 | 30180 ft | 519 kts | 45° |
| 2026-05-07 18:27 | 37.73444 | -10.58325 | 29655 ft | 514 kts | 45° |
| 2026-05-07 18:28 | 37.76863 | -10.54168 | 28643 ft | 502 kts | 45° |
| 2026-05-07 18:28 | 37.79301 | -10.51198 | 28265 ft | 473 kts | 45° |
| 2026-05-07 18:28 | 37.81619 | -10.48375 | 27595 ft | 453 kts | 45° |
| 2026-05-07 18:28 | 37.83846 | -10.45653 | 26803 ft | 439 kts | 45° |
| 2026-05-07 18:29 | 37.86010 | -10.43005 | 25966 ft | 428 kts | 45° |
| 2026-05-07 18:29 | 37.88096 | -10.40366 | 25149 ft | 419 kts | 46° |
| 2026-05-07 18:29 | 37.90095 | -10.37720 | 24358 ft | 411 kts | 48° |
| 2026-05-07 18:29 | 37.92025 | -10.35094 | 23579 ft | 404 kts | 48° |
| 2026-05-07 18:30 | 37.93920 | -10.32488 | 22671 ft | 402 kts | 48° |
| 2026-05-07 18:30 | 37.95816 | -10.29885 | 22173 ft | 398 kts | 48° |
| 2026-05-07 18:30 | 37.97689 | -10.27334 | 21848 ft | 392 kts | 48° |
| 2026-05-07 18:30 | 37.99538 | -10.24832 | 21372 ft | 388 kts | 48° |
| 2026-05-07 18:31 | 38.01364 | -10.22372 | 20891 ft | 385 kts | 47° |
| 2026-05-07 18:31 | 38.03194 | -10.19912 | 20404 ft | 384 kts | 47° |
| 2026-05-07 18:31 | 38.05005 | -10.17477 | 20105 ft | 373 kts | 47° |
| 2026-05-07 18:31 | 38.06772 | -10.15099 | 19490 ft | 367 kts | 47° |
| 2026-05-07 18:32 | 38.08517 | -10.12746 | 19025 ft | 365 kts | 47° |
| 2026-05-07 18:32 | 38.10248 | -10.10411 | 18569 ft | 361 kts | 47° |
| 2026-05-07 18:32 | 38.11968 | -10.08089 | 18105 ft | 361 kts | 47° |
| 2026-05-07 18:32 | 38.13678 | -10.05779 | 17829 ft | 355 kts | 47° |
| 2026-05-07 18:33 | 38.15382 | -10.03470 | 17721 ft | 361 kts | 48° |
| 2026-05-07 18:33 | 38.17156 | -10.01211 | 17573 ft | 362 kts | 40° |
| 2026-05-07 18:33 | 38.19221 | -9.99398 | 17307 ft | 362 kts | 28° |
| 2026-05-07 18:33 | 38.21518 | -9.98099 | 16832 ft | 360 kts | 21° |
| 2026-05-07 18:34 | 38.23821 | -9.96910 | 16495 ft | 355 kts | 21° |
| 2026-05-07 18:34 | 38.26095 | -9.95726 | 16139 ft | 351 kts | 22° |
| 2026-05-07 18:34 | 38.28350 | -9.94544 | 15733 ft | 350 kts | 22° |
| 2026-05-07 18:34 | 38.30583 | -9.93371 | 15244 ft | 343 kts | 23° |
| 2026-05-07 18:35 | 38.32746 | -9.92233 | 14594 ft | 338 kts | 23° |
| 2026-05-07 18:35 | 38.34896 | -9.91098 | 13955 ft | 332 kts | 24° |
| 2026-05-07 18:35 | 38.37021 | -9.89975 | 13670 ft | 328 kts | 24° |
| 2026-05-07 18:35 | 38.39123 | -9.88865 | 13406 ft | 326 kts | 24° |
| 2026-05-07 18:36 | 38.41212 | -9.87762 | 13038 ft | 329 kts | 24° |
| 2026-05-07 18:36 | 38.43409 | -9.86601 | 12703 ft | 344 kts | 24° |
| 2026-05-07 18:36 | 38.45547 | -9.85468 | 12443 ft | 321 kts | 24° |
| 2026-05-07 18:36 | 38.47568 | -9.84394 | 11983 ft | 309 kts | 24° |
| 2026-05-07 18:37 | 38.49540 | -9.83345 | 11504 ft | 308 kts | 24° |
| 2026-05-07 18:37 | 38.51519 | -9.82288 | 11036 ft | 310 kts | 24° |
| 2026-05-07 18:37 | 38.53501 | -9.81223 | 10638 ft | 309 kts | 24° |
| 2026-05-07 18:37 | 38.55479 | -9.80155 | 10254 ft | 307 kts | 24° |
| 2026-05-07 18:38 | 38.57411 | -9.79108 | 9863 ft | 295 kts | 24° |
| 2026-05-07 18:38 | 38.59255 | -9.78106 | 9444 ft | 282 kts | 24° |
| 2026-05-07 18:38 | 38.61017 | -9.77138 | 9023 ft | 271 kts | 24° |
| 2026-05-07 18:38 | 38.62729 | -9.76190 | 8600 ft | 267 kts | 24° |
| 2026-05-07 18:39 | 38.64429 | -9.75234 | 8193 ft | 267 kts | 24° |
| 2026-05-07 18:39 | 38.66114 | -9.74274 | 7944 ft | 261 kts | 24° |
| 2026-05-07 18:39 | 38.67763 | -9.73326 | 7946 ft | 259 kts | 24° |
| 2026-05-07 18:39 | 38.69413 | -9.72379 | 7948 ft | 260 kts | 24° |
| 2026-05-07 18:40 | 38.71058 | -9.71434 | 7946 ft | 260 kts | 24° |
| 2026-05-07 18:40 | 38.72711 | -9.70481 | 7952 ft | 259 kts | 25° |
| 2026-05-07 18:40 | 38.74117 | -9.69136 | 7946 ft | 258 kts | 53° |
| 2026-05-07 18:40 | 38.74884 | -9.67097 | 7953 ft | 255 kts | 76° |
| 2026-05-07 18:41 | 38.75329 | -9.64898 | 7951 ft | 255 kts | 78° |
| 2026-05-07 18:41 | 38.75737 | -9.62685 | 7949 ft | 255 kts | 79° |
| 2026-05-07 18:41 | 38.76140 | -9.60469 | 7943 ft | 255 kts | 79° |
| 2026-05-07 18:41 | 38.76539 | -9.58251 | 7948 ft | 255 kts | 79° |
| 2026-05-07 18:42 | 38.76920 | -9.56034 | 7946 ft | 254 kts | 84° |
| 2026-05-07 18:42 | 38.76756 | -9.53824 | 7946 ft | 249 kts | 112° |
| 2026-05-07 18:42 | 38.76068 | -9.51795 | 7942 ft | 248 kts | 118° |
| 2026-05-07 18:42 | 38.75309 | -9.49805 | 7944 ft | 248 kts | 119° |
| 2026-05-07 18:43 | 38.74544 | -9.47826 | 7949 ft | 248 kts | 119° |
| 2026-05-07 18:43 | 38.73717 | -9.45892 | 7934 ft | 245 kts | 130° |
| 2026-05-07 18:43 | 38.72458 | -9.44495 | 7945 ft | 238 kts | 155° |
| 2026-05-07 18:43 | 38.70893 | -9.43927 | 7949 ft | 235 kts | 179° |
| 2026-05-07 18:44 | 38.69301 | -9.44263 | 7940 ft | 233 kts | 202° |
| 2026-05-07 18:44 | 38.67961 | -9.45417 | 7942 ft | 234 kts | 221° |
| 2026-05-07 18:44 | 38.66759 | -9.46828 | 7948 ft | 236 kts | 222° |
| 2026-05-07 18:44 | 38.65547 | -9.48242 | 7947 ft | 236 kts | 222° |
| 2026-05-07 18:45 | 38.64326 | -9.49662 | 7948 ft | 235 kts | 221° |
| 2026-05-07 18:45 | 38.63118 | -9.51064 | 7947 ft | 235 kts | 221° |
| 2026-05-07 18:45 | 38.61908 | -9.52467 | 7952 ft | 236 kts | 221° |
| 2026-05-07 18:45 | 38.60692 | -9.53830 | 7949 ft | 236 kts | 215° |
| 2026-05-07 18:46 | 38.59218 | -9.54740 | 7950 ft | 236 kts | 195° |
| 2026-05-07 18:46 | 38.57587 | -9.54921 | 7953 ft | 237 kts | 175° |
| 2026-05-07 18:46 | 38.55966 | -9.54536 | 7950 ft | 233 kts | 170° |
| 2026-05-07 18:46 | 38.54423 | -9.54140 | 7953 ft | 223 kts | 170° |
| 2026-05-07 18:47 | 38.52907 | -9.53756 | 7952 ft | 222 kts | 170° |
| 2026-05-07 18:47 | 38.51907 | -9.53505 | 7949 ft | 221 kts | 171° |
| 2026-05-07 18:47 | 38.50397 | -9.53095 | 7950 ft | 222 kts | 165° |
| 2026-05-07 18:47 | 38.48985 | -9.52289 | 7941 ft | 225 kts | 150° |
| 2026-05-07 18:48 | 38.47672 | -9.51171 | 7949 ft | 226 kts | 149° |
| 2026-05-07 18:48 | 38.46365 | -9.50056 | 7945 ft | 226 kts | 149° |
| 2026-05-07 18:48 | 38.45056 | -9.48943 | 7954 ft | 226 kts | 149° |
| 2026-05-07 18:48 | 38.43753 | -9.47834 | 7946 ft | 226 kts | 149° |
| 2026-05-07 18:49 | 38.42444 | -9.46713 | 7952 ft | 226 kts | 147° |
| 2026-05-07 18:49 | 38.41305 | -9.45323 | 7947 ft | 228 kts | 131° |
| 2026-05-07 18:49 | 38.40413 | -9.43656 | 7948 ft | 227 kts | 127° |
| 2026-05-07 18:49 | 38.39533 | -9.41981 | 7949 ft | 227 kts | 127° |
| 2026-05-07 18:50 | 38.38649 | -9.40307 | 7951 ft | 227 kts | 127° |
| 2026-05-07 18:50 | 38.37764 | -9.38636 | 7944 ft | 228 kts | 128° |
| 2026-05-07 18:50 | 38.36888 | -9.36979 | 7947 ft | 229 kts | 127° |
| 2026-05-07 18:50 | 38.36183 | -9.35128 | 7949 ft | 236 kts | 111° |
| 2026-05-07 18:51 | 38.35972 | -9.33036 | 7943 ft | 242 kts | 87° |
| 2026-05-07 18:51 | 38.36512 | -9.31000 | 7945 ft | 247 kts | 58° |
| 2026-05-07 18:51 | 38.37775 | -9.29528 | 7881 ft | 250 kts | 27° |
| 2026-05-07 18:51 | 38.39434 | -9.28914 | 7706 ft | 248 kts | 10° |
| 2026-05-07 18:52 | 38.41127 | -9.28477 | 7396 ft | 248 kts | 10° |
| 2026-05-07 18:52 | 38.42808 | -9.28039 | 7124 ft | 245 kts | 11° |
| 2026-05-07 18:52 | 38.44483 | -9.27599 | 6805 ft | 246 kts | 10° |
| 2026-05-07 18:52 | 38.46180 | -9.27154 | 6272 ft | 255 kts | 9° |
| 2026-05-07 18:53 | 38.47944 | -9.26692 | 5730 ft | 260 kts | 8° |
| 2026-05-07 18:53 | 38.49663 | -9.26237 | 5255 ft | 252 kts | 9° |
| 2026-05-07 18:53 | 38.51349 | -9.25786 | 4969 ft | 236 kts | 9° |
| 2026-05-07 18:53 | 38.52884 | -9.25372 | 4745 ft | 222 kts | 9° |
| 2026-05-07 18:54 | 38.54353 | -9.24975 | 4516 ft | 209 kts | 9° |
| 2026-05-07 18:54 | 38.55715 | -9.24606 | 4309 ft | 193 kts | 7° |
| 2026-05-07 18:54 | 38.57007 | -9.24261 | 4104 ft | 186 kts | 8° |
| 2026-05-07 18:54 | 38.58270 | -9.23922 | 4031 ft | 185 kts | 9° |
| 2026-05-07 18:55 | 38.59510 | -9.23446 | 3940 ft | 186 kts | 17° |
| 2026-05-07 18:55 | 38.60710 | -9.22863 | 3741 ft | 183 kts | 16° |
| 2026-05-07 18:55 | 38.61881 | -9.22255 | 3507 ft | 181 kts | 18° |
| 2026-05-07 18:55 | 38.63039 | -9.21643 | 3265 ft | 179 kts | 17° |
| 2026-05-07 18:56 | 38.64185 | -9.21035 | 3029 ft | 178 kts | 17° |
| 2026-05-07 18:56 | 38.65308 | -9.20436 | 2812 ft | 165 kts | 17° |
| 2026-05-07 18:56 | 38.66298 | -9.19906 | 2573 ft | 146 kts | 16° |
| 2026-05-07 18:56 | 38.67239 | -9.19408 | 2372 ft | 150 kts | 16° |
| 2026-05-07 18:57 | 38.68209 | -9.18892 | 2154 ft | 152 kts | 16° |
| 2026-05-07 18:57 | 38.69187 | -9.18371 | 1951 ft | 152 kts | 15° |
| 2026-05-07 18:57 | 38.70163 | -9.17851 | 1737 ft | 152 kts | 18° |
| 2026-05-07 18:57 | 38.71136 | -9.17331 | 1534 ft | 152 kts | 17° |
| 2026-05-07 18:58 | 38.72116 | -9.16809 | 1329 ft | 152 kts | 18° |
| 2026-05-07 18:58 | 38.73051 | -9.16308 | 1131 ft | 142 kts | 15° |
| 2026-05-07 18:58 | 38.73939 | -9.15834 | 943 ft | 137 kts | 17° |
| 2026-05-07 18:58 | 38.74828 | -9.15364 | 751 ft | 138 kts | 17° |
| 2026-05-07 18:59 | 38.75719 | -9.14883 | 600 ft | 139 kts | 18° |
| 2026-05-07 18:59 | 38.76606 | -9.14408 | 379 ft | 137 kts | 16° |
| 2026-05-07 18:59 | 38.77383 | -9.13996 | 354 ft | 88 kts | 22° |
| 2026-05-07 18:59 | 38.77744 | -9.13800 | 351 ft | 45 kts | 24° |
| 2026-05-07 19:00 | 38.77980 | -9.13651 | 353 ft | 33 kts | 26° |
| 2026-05-07 19:00 | 38.78187 | -9.13547 | 356 ft | 32 kts | 29° |
| 2026-05-07 19:00 | 38.78340 | -9.13397 | 352 ft | 18 kts | 47° |
| 2026-05-07 19:00 | 38.78369 | -9.13290 | 355 ft | 5 kts | 114° |
| 2026-05-07 19:01 | 38.78337 | -9.13267 | 350 ft | 6 kts | 174° |
| 2026-05-07 19:01 | 38.78298 | -9.13276 | 355 ft | 6 kts | 195° |
| 2026-05-07 19:01 | 38.78256 | -9.13292 | 355 ft | 7 kts | 199° |
| 2026-05-07 19:01 | 38.78212 | -9.13314 | 352 ft | 7 kts | 200° |
| 2026-05-07 19:02 | 38.78164 | -9.13335 | 356 ft | 7 kts | 200° |
| 2026-05-07 19:02 | 38.78116 | -9.13360 | 349 ft | 8 kts | 203° |
| 2026-05-07 19:02 | 38.78065 | -9.13385 | 358 ft | 8 kts | 198° |
| 2026-05-07 19:02 | 38.78012 | -9.13401 | 348 ft | 8 kts | 190° |
| 2026-05-07 19:03 | 38.77961 | -9.13415 | 348 ft | 7 kts | 203° |
| 2026-05-07 19:03 | 38.77923 | -9.13458 | 353 ft | 7 kts | 229° |
| 2026-05-07 19:03 | 38.77882 | -9.13497 | 352 ft | 7 kts | 206° |
| 2026-05-07 19:03 | 38.77801 | -9.13505 | 352 ft | 18 kts | 172° |
| 2026-05-07 19:04 | 38.77679 | -9.13473 | 352 ft | 16 kts | 168° |
| 2026-05-07 19:04 | 38.77568 | -9.13446 | 347 ft | 16 kts | 169° |
| 2026-05-07 19:04 | 38.77461 | -9.13416 | 351 ft | 16 kts | 167° |
| 2026-05-07 19:04 | 38.77353 | -9.13386 | 347 ft | 16 kts | 168° |
| 2026-05-07 19:05 | 38.77245 | -9.13356 | 351 ft | 16 kts | 168° |
| 2026-05-07 19:05 | 38.77136 | -9.13327 | 351 ft | 16 kts | 169° |
| 2026-05-07 19:05 | 38.77038 | -9.13291 | 355 ft | 13 kts | 140° |
| 2026-05-07 19:05 | 38.77010 | -9.13186 | 351 ft | 12 kts | 132° |
| 2026-05-07 19:06 | 38.76932 | -9.13157 | 349 ft | 10 kts | 170° |
| 2026-05-07 19:06 | 38.76884 | -9.13075 | 347 ft | 4 kts | 77° |
| 2026-05-07 19:06 | 38.76887 | -9.13057 | 347 ft | 0 kts | 77° |